Time;durP1;ratioP1;P1;durP2;ratioP2;P2;SDS_P1;SDS_P2;PMS_P1;PMS_P2;Temp;Humidity;BMP_temperature;BMP_pressure;BME280_temperature;BME280_humidity;BME280_pressure;Samples;Min_cycle;Max_cycle;Signal;HPM_P1;HPM_P2
2022/03/03 00:01:43;;;;;;;84.13;41.25;;;0.30;80.50;;;;;;5072743;28;20044;-73
2022/03/03 00:04:09;;;;;;;85.63;41.72;;;0.30;80.40;;;;;;5070081;28;20109;-73
2022/03/03 00:06:35;;;;;;;86.07;41.73;;;0.20;80.40;;;;;;5053502;28;20090;-73
2022/03/03 00:09:02;;;;;;;81.72;39.88;;;0.20;80.40;;;;;;5069760;28;20047;-73
2022/03/03 00:11:30;;;;;;;85.28;43.05;;;0.30;80.60;;;;;;5073609;28;20071;-73
2022/03/03 00:13:56;;;;;;;84.10;42.17;;;0.20;80.40;;;;;;5081756;28;20503;-73
2022/03/03 00:16:22;;;;;;;81.22;41.50;;;0.20;80.50;;;;;;5053823;28;20095;-73
2022/03/03 00:18:47;;;;;;;82.70;42.33;;;0.20;80.50;;;;;;5090307;28;20074;-73
2022/03/03 00:21:13;;;;;;;83.00;40.47;;;0.20;80.40;;;;;;5071572;28;20040;-73
2022/03/03 00:23:39;;;;;;;83.87;40.80;;;0.10;80.50;;;;;;5076063;28;20543;-73
2022/03/03 00:26:05;;;;;;;83.60;40.95;;;0.10;80.50;;;;;;5083564;28;20480;-73
2022/03/03 00:28:31;;;;;;;83.75;41.22;;;0.10;80.60;;;;;;5083303;28;20036;-73
2022/03/03 00:30:57;;;;;;;93.03;43.07;;;0.10;80.50;;;;;;5067576;28;20488;-73
2022/03/03 00:33:23;;;;;;;85.03;41.83;;;0.00;80.60;;;;;;5037455;28;20048;-73
2022/03/03 00:35:48;;;;;;;86.03;41.87;;;0.10;80.80;;;;;;5066328;28;20040;-73
2022/03/03 00:38:14;;;;;;;86.67;42.00;;;0.20;81.00;;;;;;5056193;28;20405;-73
2022/03/03 00:40:40;;;;;;;85.53;39.97;;;0.20;80.80;;;;;;5091760;28;20100;-73
2022/03/03 00:43:06;;;;;;;84.00;40.43;;;0.20;80.90;;;;;;5045344;28;20045;-73
2022/03/03 00:45:36;;;;;;;88.85;42.85;;;0.20;80.70;;;;;;5100500;28;20410;-73
2022/03/03 00:48:03;;;;;;;80.75;40.10;;;0.20;80.50;;;;;;5061034;28;20055;-73
2022/03/03 00:50:29;;;;;;;89.10;42.30;;;0.10;80.50;;;;;;5065358;28;20496;-73
2022/03/03 00:52:55;;;;;;;91.07;43.47;;;0.10;80.60;;;;;;5056960;28;20049;-73
2022/03/03 00:55:20;;;;;;;90.63;43.07;;;0.00;80.60;;;;;;5061507;28;20044;-73
2022/03/03 00:57:46;;;;;;;89.10;42.43;;;0.00;80.70;;;;;;5057601;28;20043;-73
2022/03/03 01:00:12;;;;;;;88.73;43.43;;;0.00;80.70;;;;;;5072995;28;20040;-73
2022/03/03 01:02:38;;;;;;;92.28;45.25;;;0.00;80.90;;;;;;5088955;28;20052;-73
2022/03/03 01:05:05;;;;;;;89.15;43.47;;;0.00;80.80;;;;;;5064234;28;20119;-73
2022/03/03 01:07:32;;;;;;;90.28;42.60;;;0.00;80.80;;;;;;5076471;28;20060;-73
2022/03/03 01:09:57;;;;;;;90.82;42.40;;;0.00;81.00;;;;;;5053728;28;20036;-73
2022/03/03 01:12:23;;;;;;;91.27;44.80;;;0.00;81.00;;;;;;5087301;28;20334;-73
2022/03/03 01:14:49;;;;;;;96.13;44.30;;;0.00;81.00;;;;;;5068863;28;20041;-73
2022/03/03 01:17:15;;;;;;;95.03;44.97;;;0.00;81.00;;;;;;5076137;28;20036;-73
2022/03/03 01:19:41;;;;;;;93.68;45.45;;;0.00;81.10;;;;;;5065585;28;20400;-73
2022/03/03 01:22:08;;;;;;;94.90;44.38;;;0.00;81.30;;;;;;5070420;28;20205;-73
2022/03/03 01:24:33;;;;;;;98.82;44.92;;;0.00;81.10;;;;;;5085187;28;20059;-73
2022/03/03 01:26:59;;;;;;;94.83;44.13;;;0.00;81.20;;;;;;5059389;28;20039;-73
2022/03/03 01:29:25;;;;;;;91.43;44.00;;;0.00;81.20;;;;;;5073151;28;20036;-73
2022/03/03 01:31:51;;;;;;;89.13;43.63;;;0.00;81.10;;;;;;5071111;28;20564;-73
2022/03/03 01:34:16;;;;;;;97.80;45.30;;;0.00;81.00;;;;;;5069488;28;20508;-73
2022/03/03 01:36:43;;;;;;;89.23;42.90;;;-0.10;81.20;;;;;;5078654;28;20040;-73
2022/03/03 01:39:09;;;;;;;85.88;42.55;;;-0.10;81.10;;;;;;5069811;28;20042;-73
2022/03/03 01:41:36;;;;;;;86.70;43.00;;;-0.20;81.20;;;;;;5051212;28;20052;-73
2022/03/03 01:44:03;;;;;;;90.38;43.55;;;-0.20;81.30;;;;;;5067492;28;20335;-73
2022/03/03 01:46:29;;;;;;;91.10;43.33;;;-0.20;81.30;;;;;;5058767;28;20108;-73
2022/03/03 01:48:55;;;;;;;89.55;43.20;;;-0.20;81.40;;;;;;5069586;28;20412;-73
2022/03/03 01:51:21;;;;;;;84.67;41.80;;;-0.20;81.40;;;;;;5086853;28;20051;-73
2022/03/03 01:53:46;;;;;;;88.33;43.27;;;-0.20;81.40;;;;;;5064346;28;20040;-73
2022/03/03 01:56:13;;;;;;;90.97;43.23;;;-0.30;81.40;;;;;;5066334;28;20040;-73
2022/03/03 01:58:39;;;;;;;90.47;43.92;;;-0.30;81.50;;;;;;5057973;28;20047;-73
2022/03/03 02:01:05;;;;;;;89.70;43.53;;;-0.30;81.40;;;;;;5080573;28;20548;-73
2022/03/03 02:03:31;;;;;;;91.70;42.20;;;-0.30;81.60;;;;;;5045639;28;20173;-73
2022/03/03 02:05:56;;;;;;;89.90;42.30;;;-0.30;81.90;;;;;;5064433;28;20111;-73
2022/03/03 02:08:23;;;;;;;94.20;44.40;;;-0.30;81.60;;;;;;5065636;28;20047;-73
2022/03/03 02:10:52;;;;;;;93.90;44.53;;;-0.30;81.60;;;;;;5078949;28;20275;-72
2022/03/03 02:13:18;;;;;;;93.65;43.33;;;-0.30;81.60;;;;;;5066205;28;20059;-72
2022/03/03 02:15:51;;;;;;;91.32;44.28;;;-0.30;81.50;;;;;;5071312;28;20593;-73
2022/03/03 02:18:18;;;;;;;88.63;42.17;;;-0.30;81.70;;;;;;5063908;28;20082;-73
2022/03/03 02:20:44;;;;;;;91.68;45.30;;;-0.40;81.60;;;;;;5055337;28;20032;-73
2022/03/03 02:23:10;;;;;;;93.43;44.77;;;-0.40;81.70;;;;;;5066018;28;20052;-73
2022/03/03 02:25:35;;;;;;;93.17;42.67;;;-0.40;81.70;;;;;;5093214;28;20075;-73
2022/03/03 02:28:01;;;;;;;97.57;44.43;;;-0.40;81.80;;;;;;5036391;28;20282;-73
2022/03/03 02:30:27;;;;;;;90.30;44.00;;;-0.40;81.70;;;;;;5050873;28;20484;-73
2022/03/03 02:32:53;;;;;;;96.33;46.33;;;-0.40;81.80;;;;;;5040532;28;20441;-73
2022/03/03 02:35:19;;;;;;;96.80;44.93;;;-0.30;81.90;;;;;;5079268;28;20093;-73
2022/03/03 02:37:46;;;;;;;91.68;43.15;;;-0.30;81.80;;;;;;5081015;28;20168;-73
2022/03/03 02:40:20;;;;;;;89.45;43.85;;;-0.40;81.70;;;;;;5064476;28;20404;-73
2022/03/03 02:42:50;;;;;;;89.97;43.10;;;-0.40;81.70;;;;;;5062023;28;20096;-73
2022/03/03 02:45:16;;;;;;;92.68;43.15;;;-0.50;81.80;;;;;;5065415;28;20060;-73
2022/03/03 02:47:43;;;;;;;91.88;42.35;;;-0.50;81.70;;;;;;5066749;28;20127;-73
2022/03/03 02:50:14;;;;;;;88.47;42.97;;;-0.50;81.90;;;;;;5064725;28;20105;-72
2022/03/03 02:52:40;;;;;;;95.22;42.78;;;-0.50;81.80;;;;;;5078924;28;20047;-73
2022/03/03 02:55:06;;;;;;;87.15;41.47;;;-0.60;81.80;;;;;;5084744;28;20032;-73
2022/03/03 03:00:17;;;;;;;93.25;43.80;;;-0.60;81.70;;;;;;5075098;28;20048;-73
2022/03/03 03:02:43;;;;;;;91.30;43.57;;;-0.60;82.00;;;;;;5068396;28;20040;-73
2022/03/03 03:05:10;;;;;;;93.22;43.85;;;-0.60;81.80;;;;;;5085401;28;20535;-73
2022/03/03 03:07:37;;;;;;;90.03;42.08;;;-0.60;81.90;;;;;;5073545;28;20043;-73
2022/03/03 03:10:04;;;;;;;86.70;41.30;;;-0.60;81.90;;;;;;5051934;28;20044;-73
2022/03/03 03:12:30;;;;;;;86.72;42.53;;;-0.70;81.80;;;;;;5061196;28;20052;-73
2022/03/03 03:14:55;;;;;;;90.20;42.33;;;-0.70;81.90;;;;;;5060208;28;20538;-73
2022/03/03 03:17:22;;;;;;;91.80;42.30;;;-0.70;81.80;;;;;;5057750;28;20434;-73
2022/03/03 03:19:48;;;;;;;85.70;42.75;;;-0.70;81.90;;;;;;5035212;28;20126;-73
2022/03/03 03:22:13;;;;;;;85.90;41.47;;;-0.80;82.00;;;;;;5078669;28;20596;-73
2022/03/03 03:24:39;;;;;;;86.07;42.37;;;-0.80;82.00;;;;;;5067604;28;20055;-73
2022/03/03 03:27:05;;;;;;;86.07;41.50;;;-0.80;81.90;;;;;;5068801;28;20046;-73
2022/03/03 03:29:30;;;;;;;83.97;41.43;;;-0.90;81.90;;;;;;5051531;28;20123;-73
2022/03/03 03:31:56;;;;;;;87.33;41.57;;;-1.00;82.00;;;;;;5059193;28;20471;-72
2022/03/03 03:34:22;;;;;;;80.87;38.60;;;-1.00;81.90;;;;;;5078959;28;20040;-73
2022/03/03 03:36:48;;;;;;;80.17;39.83;;;-1.00;82.00;;;;;;5065028;28;20646;-73
2022/03/03 03:39:14;;;;;;;86.57;40.93;;;-1.00;82.10;;;;;;5065472;28;20033;-73
2022/03/03 03:41:40;;;;;;;85.55;41.47;;;-1.00;82.00;;;;;;5084458;28;20051;-73
2022/03/03 03:44:06;;;;;;;88.40;41.67;;;-1.00;82.10;;;;;;5052962;28;20121;-73
2022/03/03 03:46:31;;;;;;;85.00;42.57;;;-1.00;81.90;;;;;;5077469;28;20282;-73
2022/03/03 03:48:57;;;;;;;81.93;39.83;;;-1.00;81.90;;;;;;5047903;28;20040;-73
2022/03/03 03:51:23;;;;;;;84.90;40.70;;;-1.00;81.80;;;;;;5059098;28;20039;-73
2022/03/03 03:53:48;;;;;;;83.73;39.20;;;-1.00;81.80;;;;;;5077587;28;20058;-73
2022/03/03 03:56:14;;;;;;;81.40;40.30;;;-1.10;81.90;;;;;;5088526;28;20076;-73
2022/03/03 03:58:40;;;;;;;82.27;41.20;;;-1.10;81.90;;;;;;5064417;28;20036;-73
2022/03/03 04:01:05;;;;;;;83.80;40.43;;;-1.00;82.00;;;;;;5039364;28;20093;-73
2022/03/03 04:03:34;;;;;;;81.87;39.83;;;-1.00;81.90;;;;;;5082482;28;20775;-73
2022/03/03 04:06:00;;;;;;;79.70;39.00;;;-1.00;81.80;;;;;;5053822;28;20442;-73
2022/03/03 04:08:25;;;;;;;80.63;39.03;;;-0.90;81.70;;;;;;5062478;28;20071;-73
2022/03/03 04:10:51;;;;;;;76.00;38.90;;;-0.90;81.70;;;;;;5075700;28;20033;-73
2022/03/03 04:13:17;;;;;;;78.60;39.30;;;-0.90;81.60;;;;;;5040926;28;20112;-73
2022/03/03 04:15:43;;;;;;;83.67;40.90;;;-0.80;81.70;;;;;;5072142;28;20044;-73
2022/03/03 04:18:10;;;;;;;85.03;40.50;;;-0.70;81.40;;;;;;5055152;28;20040;-73
2022/03/03 04:20:36;;;;;;;73.50;37.40;;;-0.80;81.20;;;;;;5072773;28;20119;-73
2022/03/03 04:23:02;;;;;;;73.47;37.93;;;-0.70;81.10;;;;;;5048549;28;20514;-73
2022/03/03 04:25:28;;;;;;;74.63;36.67;;;-0.70;81.10;;;;;;5078330;28;20343;-73
2022/03/03 04:27:53;;;;;;;75.60;39.83;;;-0.70;80.90;;;;;;5096261;28;20468;-73
2022/03/03 04:30:19;;;;;;;74.77;37.33;;;-0.70;80.70;;;;;;5073775;28;20051;-73
2022/03/03 04:32:45;;;;;;;78.03;38.40;;;-0.80;80.70;;;;;;5050694;28;20044;-73
2022/03/03 04:35:11;;;;;;;70.27;36.30;;;-0.80;80.80;;;;;;5032928;28;20040;-73
2022/03/03 04:37:37;;;;;;;71.18;38.28;;;-0.80;80.90;;;;;;5055679;28;20036;-73
2022/03/03 04:40:04;;;;;;;82.03;39.22;;;-0.80;80.80;;;;;;5040236;28;20089;-73
2022/03/03 04:42:30;;;;;;;79.07;38.72;;;-0.80;80.90;;;;;;5073643;28;20093;-73
2022/03/03 04:44:56;;;;;;;80.03;39.57;;;-0.80;80.70;;;;;;5050252;28;20933;-72
2022/03/03 04:47:21;;;;;;;83.47;39.83;;;-0.80;80.70;;;;;;5056035;28;20040;-73
2022/03/03 04:49:47;;;;;;;85.70;40.73;;;-0.70;80.80;;;;;;5072297;28;20097;-73
2022/03/03 04:52:13;;;;;;;80.07;39.60;;;-0.70;80.80;;;;;;5075410;28;20457;-73
2022/03/03 04:54:39;;;;;;;82.33;39.07;;;-0.70;80.90;;;;;;5066821;28;20072;-73
2022/03/03 04:57:05;;;;;;;83.07;39.07;;;-0.70;80.60;;;;;;5063950;28;20032;-73
2022/03/03 04:59:30;;;;;;;80.60;39.50;;;-0.80;80.80;;;;;;5071120;28;20071;-73
2022/03/03 05:01:56;;;;;;;81.93;39.37;;;-0.80;80.90;;;;;;5064767;28;20035;-73
2022/03/03 05:04:22;;;;;;;79.20;39.27;;;-0.80;80.90;;;;;;5057683;28;20761;-73
2022/03/03 05:06:48;;;;;;;75.83;38.70;;;-0.80;81.10;;;;;;5056414;28;20047;-73
2022/03/03 05:09:14;;;;;;;71.10;37.40;;;-0.80;80.90;;;;;;5069276;28;20526;-73
2022/03/03 05:11:40;;;;;;;76.15;38.42;;;-0.80;81.10;;;;;;5063433;28;20078;-73
2022/03/03 05:14:06;;;;;;;73.57;38.23;;;-0.80;80.80;;;;;;5067075;28;20564;-73
2022/03/03 05:16:31;;;;;;;74.47;37.28;;;-0.80;80.70;;;;;;5095187;28;20365;-73
2022/03/03 05:18:57;;;;;;;64.73;36.03;;;-0.80;80.70;;;;;;5074674;28;20044;-73
2022/03/03 05:21:23;;;;;;;70.23;36.00;;;-0.80;80.80;;;;;;5058612;28;20131;-73
2022/03/03 05:23:49;;;;;;;71.75;37.63;;;-0.90;80.60;;;;;;5086218;28;20048;-73
2022/03/03 05:26:15;;;;;;;72.73;37.00;;;-0.90;80.60;;;;;;5069267;28;20075;-73
2022/03/03 05:28:42;;;;;;;71.15;35.35;;;-0.90;80.50;;;;;;5075429;28;20046;-73
2022/03/03 05:31:08;;;;;;;71.82;36.80;;;-1.00;80.50;;;;;;5058578;28;20165;-73
2022/03/03 05:33:34;;;;;;;66.93;35.40;;;-1.00;80.50;;;;;;5090171;28;20044;-73
2022/03/03 05:36:04;;;;;;;66.78;35.75;;;-1.10;80.50;;;;;;5081180;28;20062;-73
2022/03/03 05:38:31;;;;;;;71.15;36.90;;;-1.10;80.60;;;;;;5083112;28;20122;-73
2022/03/03 05:40:58;;;;;;;67.25;35.80;;;-1.20;80.50;;;;;;5070963;28;20131;-73
2022/03/03 05:43:25;;;;;;;63.95;35.67;;;-1.20;80.50;;;;;;5061291;28;20048;-73
2022/03/03 05:45:52;;;;;;;67.95;36.28;;;-1.30;80.50;;;;;;5061625;28;20135;-72
2022/03/03 05:48:19;;;;;;;65.72;35.80;;;-1.40;80.60;;;;;;5058017;28;20091;-72
2022/03/03 05:50:45;;;;;;;62.97;34.92;;;-1.40;80.60;;;;;;5054495;28;20127;-73
2022/03/03 05:53:11;;;;;;;68.68;34.40;;;-1.40;80.50;;;;;;5068602;28;20051;-73
2022/03/03 05:55:59;;;;;;;66.37;34.97;;;-1.50;80.80;;;;;;5069131;28;20040;-73
2022/03/03 05:58:45;;;;;;;68.63;36.47;;;-1.50;80.80;;;;;;5063107;28;20123;-73
2022/03/03 06:01:14;;;;;;;68.57;34.90;;;-1.50;80.90;;;;;;5069966;28;20494;-73
2022/03/03 06:03:40;;;;;;;70.53;35.30;;;-1.60;80.80;;;;;;5067229;28;20036;-73
2022/03/03 06:06:28;;;;;;;62.97;34.53;;;-1.60;80.80;;;;;;5068045;28;20492;-73
2022/03/03 06:09:09;;;;;;;68.70;36.40;;;-1.60;80.80;;;;;;5084550;28;20040;-73
2022/03/03 06:11:45;;;;;;;70.85;36.38;;;-1.70;80.80;;;;;;5061470;28;20083;-72
2022/03/03 06:14:15;;;;;;;64.88;34.53;;;-1.70;80.80;;;;;;5069891;28;20046;-72
2022/03/03 06:16:42;;;;;;;69.32;35.20;;;-1.70;80.80;;;;;;5076578;28;20043;-72
2022/03/03 06:19:08;;;;;;;70.97;35.75;;;-1.80;80.80;;;;;;5057771;28;20040;-73
2022/03/03 06:21:34;;;;;;;66.80;35.08;;;-1.80;80.80;;;;;;5070077;28;20036;-72
2022/03/03 06:24:00;;;;;;;67.13;34.53;;;-1.80;80.80;;;;;;5080511;28;20056;-73
2022/03/03 06:26:26;;;;;;;66.60;34.93;;;-1.80;80.80;;;;;;5091701;28;20040;-73
2022/03/03 06:28:52;;;;;;;71.20;36.50;;;-1.80;80.90;;;;;;5064562;28;20084;-73
2022/03/03 06:31:18;;;;;;;67.28;36.83;;;-1.80;80.80;;;;;;5070428;28;20044;-73
2022/03/03 06:33:44;;;;;;;65.13;34.87;;;-1.80;80.80;;;;;;5069088;28;20040;-73
2022/03/03 06:36:09;;;;;;;66.93;35.47;;;-1.80;80.80;;;;;;5071318;28;20046;-73
2022/03/03 06:38:35;;;;;;;62.30;33.27;;;-1.80;80.90;;;;;;5071776;28;20036;-73
2022/03/03 06:41:02;;;;;;;66.13;35.55;;;-1.80;80.90;;;;;;5082978;28;20037;-73
2022/03/03 06:43:29;;;;;;;65.78;35.42;;;-1.80;80.80;;;;;;5088174;28;20055;-73
2022/03/03 06:45:58;;;;;;;63.95;33.90;;;-1.70;80.80;;;;;;5069454;28;20040;-73
2022/03/03 06:48:25;;;;;;;63.85;33.72;;;-1.70;80.80;;;;;;5074412;28;20082;-73
2022/03/03 06:50:52;;;;;;;58.42;32.58;;;-1.60;80.70;;;;;;5069238;28;20040;-73
2022/03/03 06:53:25;;;;;;;66.32;34.65;;;-1.60;80.70;;;;;;5068303;28;20404;-73
2022/03/03 06:55:52;;;;;;;65.25;35.13;;;-1.60;80.60;;;;;;5065679;28;20485;-73
2022/03/03 06:58:24;;;;;;;61.50;32.30;;;-1.60;80.50;;;;;;5084799;28;20040;-73
2022/03/03 07:00:52;;;;;;;63.70;33.00;;;-1.50;80.40;;;;;;5060542;28;20044;-73
2022/03/03 07:03:21;;;;;;;61.42;33.35;;;-1.50;80.50;;;;;;5060649;28;20037;-74
2022/03/03 07:05:47;;;;;;;57.13;31.17;;;-1.40;80.30;;;;;;5072889;28;20074;-74
2022/03/03 07:08:14;;;;;;;61.90;32.60;;;-1.30;80.20;;;;;;5049063;28;20045;-73
2022/03/03 07:10:39;;;;;;;59.13;31.85;;;-1.20;79.80;;;;;;5068430;28;20047;-73
2022/03/03 07:13:05;;;;;;;61.93;32.27;;;-1.10;79.50;;;;;;5062123;28;20501;-74
2022/03/03 07:15:35;;;;;;;60.77;33.33;;;-1.00;79.30;;;;;;5048044;28;20119;-74
2022/03/03 07:18:10;;;;;;;54.53;31.08;;;-0.90;79.20;;;;;;5069907;28;20500;-74
2022/03/03 07:20:41;;;;;;;57.60;31.63;;;-0.80;78.90;;;;;;5067376;28;20042;-73
2022/03/03 07:23:24;;;;;;;56.45;31.55;;;-0.70;78.40;;;;;;5056830;28;20058;-74
2022/03/03 07:25:54;;;;;;;55.38;31.77;;;-0.60;78.10;;;;;;5069409;28;20044;-73
2022/03/03 07:28:21;;;;;;;56.33;31.25;;;-0.50;78.10;;;;;;5083079;28;20051;-74
2022/03/03 07:30:50;;;;;;;54.65;30.35;;;-0.50;78.00;;;;;;5053776;28;20044;-73
2022/03/03 07:33:42;;;;;;;55.50;30.10;;;-0.40;78.00;;;;;;5070331;28;20039;-73
2022/03/03 07:36:10;;;;;;;50.65;29.05;;;-0.40;77.90;;;;;;5066912;28;20039;-73
2022/03/03 07:38:37;;;;;;;55.58;29.67;;;-0.30;77.90;;;;;;5062913;28;20041;-74
2022/03/03 07:41:04;;;;;;;50.50;30.17;;;-0.20;77.90;;;;;;5062896;28;20040;-74
2022/03/03 07:43:30;;;;;;;54.92;30.23;;;-0.20;77.60;;;;;;5074380;28;20048;-74
2022/03/03 07:45:57;;;;;;;52.08;28.55;;;-0.10;77.60;;;;;;5038669;28;20575;-74
2022/03/03 07:48:24;;;;;;;51.67;28.20;;;0.00;77.60;;;;;;5063965;28;20043;-74
2022/03/03 07:50:51;;;;;;;46.83;27.15;;;0.00;77.60;;;;;;5061881;28;20112;-74
2022/03/03 07:53:17;;;;;;;50.15;28.70;;;0.10;77.40;;;;;;5061749;28;20085;-74
2022/03/03 07:55:54;;;;;;;50.63;28.83;;;0.30;76.90;;;;;;5057866;28;20055;-74
2022/03/03 07:58:22;;;;;;;48.35;27.90;;;0.40;76.60;;;;;;5063207;28;20047;-74
2022/03/03 08:00:50;;;;;;;47.45;27.75;;;0.40;76.40;;;;;;5082169;28;20506;-74
2022/03/03 08:03:20;;;;;;;49.85;27.73;;;0.50;76.30;;;;;;5076805;28;20350;-74
2022/03/03 08:05:48;;;;;;;44.42;26.20;;;0.60;76.30;;;;;;5067739;28;20594;-74
2022/03/03 08:08:16;;;;;;;50.67;27.20;;;0.70;76.00;;;;;;5058252;28;20048;-74
2022/03/03 08:10:43;;;;;;;45.13;25.90;;;0.80;75.70;;;;;;5077117;28;20040;-74
2022/03/03 08:13:17;;;;;;;49.95;28.48;;;0.90;75.60;;;;;;5049497;28;20044;-74
2022/03/03 08:15:44;;;;;;;48.13;27.73;;;1.00;75.10;;;;;;5059276;28;20382;-74
2022/03/03 08:18:11;;;;;;;45.22;26.63;;;1.00;74.90;;;;;;5083477;28;20119;-74
2022/03/03 08:20:38;;;;;;;45.17;25.52;;;1.10;74.70;;;;;;5060190;28;20036;-74
2022/03/03 08:23:05;;;;;;;45.13;26.50;;;1.20;74.80;;;;;;5099359;28;20060;-74
2022/03/03 08:25:32;;;;;;;42.72;26.55;;;1.20;74.50;;;;;;5085145;28;20400;-74
2022/03/03 08:27:58;;;;;;;43.70;26.17;;;1.30;74.60;;;;;;5068229;28;20036;-74
2022/03/03 08:30:24;;;;;;;45.80;26.42;;;1.40;74.20;;;;;;5100680;27;20570;-74
2022/03/03 08:33:35;;;;;;;42.53;25.80;;;1.40;74.50;;;;;;5071124;28;20500;-73
2022/03/03 08:36:05;;;;;;;37.53;23.65;;;1.60;74.10;;;;;;5034582;28;20063;-74
2022/03/03 08:38:36;;;;;;;43.55;25.42;;;1.70;74.10;;;;;;5074199;28;20089;-74
2022/03/03 08:41:04;;;;;;;39.05;25.45;;;1.80;74.10;;;;;;5070418;28;20462;-74
2022/03/03 08:43:33;;;;;;;41.70;25.63;;;1.90;73.50;;;;;;5090515;28;20047;-74
2022/03/03 08:46:05;;;;;;;38.75;23.83;;;2.10;73.40;;;;;;5086304;28;20040;-74
2022/03/03 08:48:32;;;;;;;38.45;24.10;;;2.20;73.10;;;;;;5071867;28;20132;-74
2022/03/03 08:51:03;;;;;;;39.80;23.15;;;2.30;72.60;;;;;;5071626;28;20040;-74
2022/03/03 08:53:29;;;;;;;36.28;23.25;;;2.40;72.10;;;;;;5071123;28;20036;-74
2022/03/03 08:55:58;;;;;;;38.30;24.40;;;2.50;72.00;;;;;;5054360;28;20094;-74
2022/03/03 08:58:24;;;;;;;37.33;23.95;;;2.60;72.00;;;;;;5067638;28;20074;-74
2022/03/03 09:00:50;;;;;;;36.15;23.60;;;2.70;71.80;;;;;;5067976;28;20123;-74
2022/03/03 09:03:22;;;;;;;37.50;23.73;;;2.90;71.00;;;;;;5054524;28;20127;-74
2022/03/03 09:05:51;;;;;;;36.45;23.48;;;3.00;70.70;;;;;;5079077;28;20581;-74
2022/03/03 09:08:17;;;;;;;38.40;23.30;;;3.10;70.10;;;;;;5074375;28;20043;-74
2022/03/03 09:10:43;;;;;;;37.70;23.92;;;3.20;69.90;;;;;;5083422;28;20123;-73
2022/03/03 09:13:09;;;;;;;35.40;23.43;;;3.30;69.70;;;;;;5070839;28;20427;-73
2022/03/03 09:15:35;;;;;;;32.17;20.97;;;3.40;69.80;;;;;;5067372;28;20496;-74
2022/03/03 09:18:01;;;;;;;31.88;21.90;;;3.50;69.50;;;;;;5054789;28;20044;-74
2022/03/03 09:20:28;;;;;;;32.20;20.63;;;3.60;68.30;;;;;;5067803;28;20058;-74
2022/03/03 09:22:54;;;;;;;30.40;19.95;;;3.70;68.10;;;;;;5079925;28;20663;-74
2022/03/03 09:25:20;;;;;;;35.47;21.17;;;3.90;67.50;;;;;;5052016;28;20131;-74
2022/03/03 09:27:46;;;;;;;30.40;20.30;;;4.00;67.30;;;;;;5081219;28;20669;-74
2022/03/03 09:30:13;;;;;;;28.05;19.60;;;4.10;66.40;;;;;;5089427;28;20053;-74
2022/03/03 09:32:39;;;;;;;28.95;18.88;;;4.20;65.80;;;;;;5063735;28;20059;-74
2022/03/03 09:35:06;;;;;;;30.20;19.85;;;4.30;65.10;;;;;;5054506;28;20108;-74
2022/03/03 09:37:32;;;;;;;28.10;19.05;;;4.40;64.50;;;;;;5071203;28;20460;-74
2022/03/03 09:39:58;;;;;;;31.50;19.35;;;4.40;63.00;;;;;;5085480;28;20668;-74
2022/03/03 09:42:31;;;;;;;31.73;20.97;;;4.50;63.60;;;;;;5082955;28;20055;-74
2022/03/03 09:44:57;;;;;;;30.00;19.92;;;4.50;63.80;;;;;;5061426;28;20298;-74
2022/03/03 09:47:23;;;;;;;28.48;20.02;;;4.60;63.50;;;;;;5057431;28;20512;-74
2022/03/03 09:49:49;;;;;;;27.47;19.70;;;4.70;64.10;;;;;;5068540;28;20047;-74
2022/03/03 09:52:16;;;;;;;28.10;19.97;;;4.70;63.50;;;;;;5071401;28;20040;-74
2022/03/03 09:54:50;;;;;;;31.13;19.25;;;4.90;63.20;;;;;;5071733;28;20377;-74
2022/03/03 09:57:16;;;;;;;28.75;18.55;;;5.00;63.10;;;;;;5060984;28;20040;-74
2022/03/03 09:59:46;;;;;;;28.70;19.63;;;5.00;63.20;;;;;;5079355;28;20057;-74
2022/03/03 10:02:12;;;;;;;29.00;19.00;;;5.20;62.90;;;;;;5076574;28;20036;-74
2022/03/03 10:04:38;;;;;;;28.30;19.35;;;5.20;62.50;;;;;;5075512;28;20062;-74
2022/03/03 10:07:08;;;;;;;26.55;19.33;;;5.30;62.30;;;;;;5062926;28;20489;-74
2022/03/03 10:12:22;;;;;;;;;;;5.50;61.40;;;;;;5067014;28;20533;-74
2022/03/03 10:14:48;;;;;;;27.92;19.08;;;5.60;61.90;;;;;;5053332;28;19919;-73
2022/03/03 10:17:15;;;;;;;29.88;19.25;;;5.70;62.00;;;;;;5069041;28;20038;-74
2022/03/03 10:19:56;;;;;;;28.85;19.70;;;5.70;61.40;;;;;;5065160;28;20041;-73
2022/03/03 10:22:40;;;;;;;27.58;19.65;;;5.90;62.00;;;;;;5047262;28;20040;-73
2022/03/03 10:25:08;;;;;;;26.05;17.95;;;6.00;61.80;;;;;;5078870;28;20581;-74
2022/03/03 10:27:34;;;;;;;25.98;18.35;;;6.10;60.90;;;;;;5084802;28;20519;-73
2022/03/03 10:30:01;;;;;;;30.23;18.90;;;6.20;61.20;;;;;;5058737;28;20041;-74
2022/03/03 10:32:27;;;;;;;27.77;18.67;;;6.30;61.00;;;;;;5058256;28;20044;-74
2022/03/03 10:34:53;;;;;;;25.33;17.27;;;6.30;59.80;;;;;;5069544;28;20127;-73
2022/03/03 10:37:23;;;;;;;24.40;17.38;;;6.40;59.50;;;;;;5082172;28;20049;-74
2022/03/03 10:39:59;;;;;;;24.10;16.90;;;6.50;58.60;;;;;;5070479;28;20044;-73
2022/03/03 10:42:26;;;;;;;25.88;17.38;;;6.60;58.80;;;;;;5078859;28;20055;-73
2022/03/03 10:45:07;;;;;;;23.42;16.85;;;6.70;59.00;;;;;;5065274;28;20070;-73
2022/03/03 10:47:33;;;;;;;26.48;16.55;;;6.80;59.20;;;;;;5081853;28;20050;-73
2022/03/03 10:50:00;;;;;;;22.03;15.83;;;6.90;57.90;;;;;;5065964;28;20132;-73
2022/03/03 10:52:33;;;;;;;23.35;15.60;;;7.00;57.10;;;;;;5063765;28;20298;-74
2022/03/03 10:55:26;;;;;;;22.30;16.63;;;7.10;57.60;;;;;;5073494;28;20115;-74
2022/03/03 10:57:56;;;;;;;25.02;16.55;;;7.20;55.50;;;;;;5089933;28;20051;-74
2022/03/03 11:00:27;;;;;;;23.38;15.93;;;7.30;56.20;;;;;;5065787;28;20536;-74
2022/03/03 11:02:58;;;;;;;25.27;17.55;;;7.40;56.60;;;;;;5086172;28;20047;-74
2022/03/03 11:05:26;;;;;;;22.13;15.18;;;7.40;56.40;;;;;;5061792;28;20056;-74
2022/03/03 11:07:53;;;;;;;25.30;16.83;;;7.50;55.70;;;;;;5080670;28;20085;-74
2022/03/03 11:10:21;;;;;;;23.45;16.58;;;7.60;54.90;;;;;;5069130;28;20054;-74
2022/03/03 11:12:48;;;;;;;22.63;16.13;;;7.70;53.80;;;;;;5078206;28;20169;-74
2022/03/03 11:15:15;;;;;;;20.38;15.52;;;7.70;54.00;;;;;;5079019;28;20040;-74
2022/03/03 11:17:42;;;;;;;21.80;16.00;;;7.80;54.40;;;;;;5082104;28;20044;-74
2022/03/03 11:20:11;;;;;;;22.05;15.73;;;7.80;52.90;;;;;;5083403;28;20132;-74
2022/03/03 11:22:39;;;;;;;27.80;17.05;;;7.90;53.30;;;;;;5064933;28;20417;-74
2022/03/03 11:25:09;;;;;;;24.85;16.42;;;7.90;53.90;;;;;;5067074;28;20129;-74
2022/03/03 11:27:40;;;;;;;23.15;15.68;;;8.00;54.00;;;;;;5056211;28;20044;-74
2022/03/03 11:30:16;;;;;;;23.17;16.58;;;8.10;53.10;;;;;;5069754;28;20040;-74
2022/03/03 11:32:43;;;;;;;22.10;15.82;;;8.20;52.80;;;;;;5068723;28;20052;-74
2022/03/03 11:35:11;;;;;;;18.38;14.38;;;8.20;52.30;;;;;;5078420;28;20453;-74
2022/03/03 11:37:42;;;;;;;21.13;15.77;;;8.30;53.40;;;;;;5085681;28;20051;-74
2022/03/03 11:40:09;;;;;;;20.23;15.45;;;8.40;53.20;;;;;;5079358;28;20052;-74
2022/03/03 11:42:47;;;;;;;19.92;14.50;;;8.50;53.00;;;;;;5053170;28;20063;-74
2022/03/03 11:45:13;;;;;;;22.00;15.02;;;8.60;52.10;;;;;;5058408;28;20082;-74
2022/03/03 11:47:48;;;;;;;21.93;14.77;;;8.60;52.90;;;;;;5063228;28;20083;-74
2022/03/03 11:50:20;;;;;;;17.25;13.57;;;8.70;51.90;;;;;;5063677;28;20134;-74
2022/03/03 11:52:57;;;;;;;21.08;14.70;;;8.80;52.00;;;;;;5082819;28;20124;-74
2022/03/03 11:55:34;;;;;;;18.85;13.85;;;8.90;52.20;;;;;;5060910;28;20470;-74
2022/03/03 11:58:00;;;;;;;19.48;14.25;;;9.00;52.20;;;;;;5068506;28;20477;-74
2022/03/03 12:00:26;;;;;;;19.03;13.73;;;9.10;52.20;;;;;;5068549;28;20076;-74
2022/03/03 12:03:04;;;;;;;17.48;13.10;;;9.20;51.10;;;;;;5101861;28;20047;-74
2022/03/03 12:05:32;;;;;;;16.40;12.40;;;9.30;50.50;;;;;;5071728;28;20126;-74
2022/03/03 12:08:16;;;;;;;17.45;12.77;;;9.40;51.10;;;;;;5078575;28;20414;-74
2022/03/03 12:11:09;;;;;;;14.48;11.93;;;9.40;49.80;;;;;;5078025;28;20055;-74
2022/03/03 12:13:38;;;;;;;16.75;12.02;;;9.50;50.30;;;;;;5070266;28;20044;-74
2022/03/03 12:16:14;;;;;;;14.68;11.43;;;9.50;50.90;;;;;;5069793;28;20123;-74
2022/03/03 12:18:42;;;;;;;14.35;11.23;;;9.60;50.90;;;;;;5074418;28;20508;-74
2022/03/03 12:21:31;;;;;;;16.33;11.73;;;9.70;51.10;;;;;;5038658;28;20040;-74
2022/03/03 12:24:22;;;;;;;13.57;10.90;;;9.80;49.40;;;;;;5069079;28;20097;-74
2022/03/03 12:26:57;;;;;;;14.55;10.73;;;9.90;49.80;;;;;;5070874;28;20040;-74
2022/03/03 12:29:42;;;;;;;14.43;9.02;;;10.00;49.70;;;;;;5072024;28;20040;-74
2022/03/03 12:32:26;;;;;;;15.15;10.95;;;10.00;49.40;;;;;;5083745;28;20051;-74
2022/03/03 12:34:53;;;;;;;16.90;12.63;;;10.10;50.00;;;;;;5075558;28;20047;-74
2022/03/03 12:37:18;;;;;;;15.60;12.10;;;10.20;50.00;;;;;;5055048;28;20063;-74
2022/03/03 12:39:53;;;;;;;14.90;11.00;;;10.20;49.60;;;;;;5086837;28;20484;-74
2022/03/03 12:42:27;;;;;;;14.35;10.20;;;10.20;49.70;;;;;;5079951;28;20064;-74
2022/03/03 12:44:54;;;;;;;15.80;10.57;;;10.20;49.40;;;;;;5070063;28;20130;-74